Time;durP1;ratioP1;P1;durP2;ratioP2;P2;SDS_P1;SDS_P2;PMS_P1;PMS_P2;Temp;Humidity;BMP_temperature;BMP_pressure;BME280_temperature;BME280_humidity;BME280_pressure;Samples;Min_cycle;Max_cycle;Signal;HPM_P1;HPM_P2
2023/11/16 00:00:05;;;;;;;;;;;;;;;27.48;21.81;97964.22;5082848;28;19976;-94
2023/11/16 00:02:31;;;;;;;;;;;;;;;27.64;21.86;97963.19;5080475;28;20385;-94
2023/11/16 00:04:57;;;;;;;;;;;;;;;27.28;21.98;97960.91;5097467;28;19924;-94
2023/11/16 00:07:23;;;;;;;;;;;;;;;27.24;22.45;97968.69;5089704;28;19970;-93
2023/11/16 00:09:50;;;;;;;;;;;;;;;27.09;21.98;97964.84;5108573;28;20298;-94
2023/11/16 00:12:16;;;;;;;;;;;;;;;27.12;22.08;97963.94;5102658;28;20368;-94
2023/11/16 00:14:42;;;;;;;;;;;;;;;27.24;21.98;97968.69;5097481;28;19928;-94
2023/11/16 00:17:08;;;;;;;;;;;;;;;26.88;22.27;97971.22;5080287;28;19924;-93
2023/11/16 00:19:37;;;;;;;;;;;;;;;26.74;22.45;97970.44;5088407;28;20018;-94
2023/11/16 00:22:03;;;;;;;;;;;;;;;25.76;23.17;97962.38;5091039;28;20399;-96
2023/11/16 00:24:29;;;;;;;;;;;;;;;25.29;24.15;97973.38;5088076;28;20027;-95
2023/11/16 00:26:55;;;;;;;;;;;;;;;25.47;24.14;97964.47;5087781;28;19951;-95
2023/11/16 00:29:21;;;;;;;;;;;;;;;25.56;23.76;97981.47;5086595;28;19920;-95
2023/11/16 00:31:48;;;;;;;;;;;;;;;24.00;26.38;97982.69;5086888;28;19951;-94
2023/11/16 00:34:14;;;;;;;;;;;;;;;24.27;25.10;97990.09;5090556;28;19920;-94
2023/11/16 00:36:40;;;;;;;;;;;;;;;24.41;25.14;97989.75;5092613;28;20364;-94
2023/11/16 00:39:08;;;;;;;;;;;;;;;24.87;24.62;97982.97;5089086;28;19920;-94
2023/11/16 00:41:35;;;;;;;;;;;;;;;25.04;24.25;97981.72;5095243;28;20315;-94
2023/11/16 00:44:02;;;;;;;;;;;;;;;25.31;23.95;97991.38;5074780;28;19927;-95
2023/11/16 00:46:28;;;;;;;;;;;;;;;25.65;23.28;97984.44;5084558;28;19977;-95
2023/11/16 00:48:54;;;;;;;;;;;;;;;25.76;23.33;97982.88;5089765;28;19967;-96
2023/11/16 00:51:20;;;;;;;;;;;;;;;25.38;23.71;97988.38;5089144;28;19923;-94
2023/11/16 00:53:48;;;;;;;;;;;;;;;25.46;23.39;97988.19;5091217;28;19924;-95
2023/11/16 00:56:14;;;;;;;;;;;;;;;25.04;23.86;97990.91;5085268;28;19953;-95
2023/11/16 00:58:44;;;;;;;;;;;;;;;23.75;27.43;97981.66;5090041;28;19920;-94
2023/11/16 01:01:15;;;;;;;;;;;;;;;24.13;24.96;97991.25;5086089;28;19998;-95
2023/11/16 01:03:42;;;;;;;;;;;;;;;24.91;23.94;97998.50;5081736;28;20449;-94
2023/11/16 01:06:08;;;;;;;;;;;;;;;24.52;24.33;97991.06;5083628;28;20003;-94
2023/11/16 01:08:36;;;;;;;;;;;;;;;25.29;23.43;98007.91;5081405;28;19920;-95
2023/11/16 01:11:03;;;;;;;;;;;;;;;25.77;22.72;98001.31;5088653;28;19954;-95
2023/11/16 01:13:38;;;;;;;;;;;;;;;25.25;23.35;98000.81;5066214;28;19920;-94
2023/11/16 01:16:14;;;;;;;;;;;;;;;24.97;23.99;98016.41;5083221;28;20015;-96
2023/11/16 01:18:46;;;;;;;;;;;;;;;25.34;23.49;98015.00;5096382;28;20368;-95
2023/11/16 01:21:13;;;;;;;;;;;;;;;25.99;22.84;98013.50;5091076;28;20376;-95
2023/11/16 01:23:39;;;;;;;;;;;;;;;25.99;22.65;98007.09;5081988;28;19928;-94
2023/11/16 01:26:13;;;;;;;;;;;;;;;25.53;23.34;98022.53;5084245;28;19916;-96
2023/11/16 01:28:45;;;;;;;;;;;;;;;25.33;23.38;98022.63;5080798;28;19944;-94
2023/11/16 01:31:12;;;;;;;;;;;;;;;25.81;22.75;98021.66;5086141;28;20298;-95
2023/11/16 01:33:38;;;;;;;;;;;;;;;25.72;22.91;98015.91;5080982;28;19947;-94
2023/11/16 01:36:04;;;;;;;;;;;;;;;25.91;22.72;98020.56;5089284;28;19916;-94
2023/11/16 01:38:31;;;;;;;;;;;;;;;25.64;22.78;98023.00;5099937;28;19920;-94
2023/11/16 01:40:57;;;;;;;;;;;;;;;25.94;22.68;98018.88;5091851;28;19920;-94
2023/11/16 01:43:26;;;;;;;;;;;;;;;25.77;22.96;98029.44;5095452;28;19966;-94
2023/11/16 01:45:53;;;;;;;;;;;;;;;26.01;22.53;98021.47;5092343;28;19916;-94
2023/11/16 01:48:23;;;;;;;;;;;;;;;26.24;22.26;98029.63;5100670;28;19966;-94
2023/11/16 01:50:51;;;;;;;;;;;;;;;26.14;22.43;98030.75;5086139;28;20397;-94
2023/11/16 01:53:17;;;;;;;;;;;;;;;26.37;22.19;98021.97;5105221;28;20015;-94
2023/11/16 01:55:45;;;;;;;;;;;;;;;25.94;22.48;98021.69;5095690;28;19920;-94
2023/11/16 01:58:12;;;;;;;;;;;;;;;26.25;22.04;98027.59;5097059;28;19958;-95
2023/11/16 02:00:42;;;;;;;;;;;;;;;26.12;22.39;98024.78;5094319;28;19924;-94
2023/11/16 02:03:09;;;;;;;;;;;;;;;25.99;22.36;98027.56;5097028;28;19924;-94
2023/11/16 02:05:35;;;;;;;;;;;;;;;25.93;22.55;98025.75;5087733;28;20016;-94
2023/11/16 02:08:03;;;;;;;;;;;;;;;26.39;21.97;98029.97;5094691;28;19920;-94
2023/11/16 02:10:30;;;;;;;;;;;;;;;26.69;21.57;98029.38;5097408;28;19920;-94
2023/11/16 02:12:59;;;;;;;;;;;;;;;26.80;21.70;98029.84;5099652;28;19920;-94
2023/11/16 02:15:27;;;;;;;;;;;;;;;27.04;21.35;98035.88;5098350;28;19943;-94
2023/11/16 02:17:53;;;;;;;;;;;;;;;27.09;21.41;98033.28;5091304;28;19974;-94
2023/11/16 02:20:20;;;;;;;;;;;;;;;26.63;21.89;98031.97;5095782;28;19920;-93
2023/11/16 02:22:50;;;;;;;;;;;;;;;26.53;22.07;98035.94;5097749;28;19981;-94
2023/11/16 02:25:17;;;;;;;;;;;;;;;27.03;21.41;98031.47;5107387;28;19970;-93
2023/11/16 02:27:44;;;;;;;;;;;;;;;27.48;20.80;98039.56;5109366;28;19916;-93
2023/11/16 02:30:12;;;;;;;;;;;;;;;27.68;20.76;98032.34;5100081;28;19963;-94
2023/11/16 02:32:39;;;;;;;;;;;;;;;27.62;20.55;98039.84;5092073;28;19923;-94
2023/11/16 02:35:05;;;;;;;;;;;;;;;27.44;20.78;98036.09;5096419;28;19920;-93
2023/11/16 02:37:31;;;;;;;;;;;;;;;26.81;21.56;98037.06;5083847;28;19927;-94
2023/11/16 02:39:59;;;;;;;;;;;;;;;26.80;21.57;98037.50;5089362;28;19981;-94
2023/11/16 02:42:25;;;;;;;;;;;;;;;27.00;21.35;98035.97;5088928;28;19920;-93
2023/11/16 02:44:54;;;;;;;;;;;;;;;27.09;21.19;98040.94;5100110;28;19920;-94
2023/11/16 02:47:20;;;;;;;;;;;;;;;27.15;21.05;98041.91;5091267;28;19941;-93
2023/11/16 02:49:47;;;;;;;;;;;;;;;27.21;21.29;98040.88;5088153;28;20046;-94
2023/11/16 02:52:13;;;;;;;;;;;;;;;27.42;20.92;98050.66;5100661;28;19931;-93
2023/11/16 02:54:39;;;;;;;;;;;;;;;27.31;20.83;98053.03;5097236;28;19920;-93
2023/11/16 02:57:07;;;;;;;;;;;;;;;27.19;21.14;98056.69;5093276;28;19967;-94
2023/11/16 02:59:33;;;;;;;;;;;;;;;26.28;21.70;98057.69;5091282;28;19920;-93
2023/11/16 03:01:59;;;;;;;;;;;;;;;26.05;22.29;98064.38;5093765;28;19966;-93
2023/11/16 03:04:27;;;;;;;;;;;;;;;26.50;21.80;98067.81;5092280;28;19988;-93
2023/11/16 03:06:53;;;;;;;;;;;;;;;26.91;21.45;98075.34;5095455;28;19920;-93
2023/11/16 03:09:19;;;;;;;;;;;;;;;27.01;21.23;98071.38;5090639;28;19931;-94
2023/11/16 03:11:45;;;;;;;;;;;;;;;26.81;21.35;98075.72;5094207;28;19943;-93
2023/11/16 03:14:13;;;;;;;;;;;;;;;26.93;21.38;98069.28;5104575;28;20406;-94
2023/11/16 03:16:45;;;;;;;;;;;;;;;26.57;21.91;98072.44;5090131;28;20019;-94
2023/11/16 03:19:12;;;;;;;;;;;;;;;26.87;21.23;98074.69;5082802;28;19920;-94
2023/11/16 03:21:38;;;;;;;;;;;;;;;26.39;21.84;98078.63;5081448;28;20290;-93
2023/11/16 03:24:04;;;;;;;;;;;;;;;26.03;22.25;98092.16;5084849;28;19925;-93
2023/11/16 03:26:30;;;;;;;;;;;;;;;26.49;21.74;98080.31;5086098;28;22110;-94
2023/11/16 03:28:57;;;;;;;;;;;;;;;26.79;21.50;98090.25;5094150;28;20410;-94
2023/11/16 03:31:23;;;;;;;;;;;;;;;27.04;21.20;98084.56;5088212;28;19952;-93
2023/11/16 03:33:49;;;;;;;;;;;;;;;27.35;20.61;98084.72;5076503;28;19927;-93
2023/11/16 03:36:16;;;;;;;;;;;;;;;27.46;20.68;98081.53;5091006;28;19950;-94
2023/11/16 03:38:42;;;;;;;;;;;;;;;27.51;20.62;98092.25;5082457;28;19920;-93
2023/11/16 03:41:09;;;;;;;;;;;;;;;27.31;20.84;98090.47;5097826;28;19935;-93
2023/11/16 03:43:35;;;;;;;;;;;;;;;27.15;20.81;98092.66;5090065;28;20014;-93
2023/11/16 03:46:02;;;;;;;;;;;;;;;27.44;20.88;98098.94;5084080;28;19920;-94
2023/11/16 03:48:28;;;;;;;;;;;;;;;27.69;20.28;98096.00;5093880;28;19930;-93
2023/11/16 03:50:54;;;;;;;;;;;;;;;27.76;20.55;98100.59;5096581;28;20007;-93
2023/11/16 03:53:20;;;;;;;;;;;;;;;27.87;20.43;98110.25;5088298;28;19943;-94
2023/11/16 03:55:46;;;;;;;;;;;;;;;27.47;20.71;98100.81;5092098;28;19924;-93
2023/11/16 03:58:12;;;;;;;;;;;;;;;27.36;20.82;98100.38;5090834;28;19945;-93
2023/11/16 04:00:38;;;;;;;;;;;;;;;27.09;20.84;98100.91;5061130;28;20307;-94
2023/11/16 04:03:04;;;;;;;;;;;;;;;27.26;20.99;98102.31;5077581;28;20283;-93
2023/11/16 04:05:30;;;;;;;;;;;;;;;27.21;20.95;98099.31;5084651;28;19920;-94
2023/11/16 04:07:56;;;;;;;;;;;;;;;27.16;20.95;98102.69;5082249;28;20011;-93
2023/11/16 04:10:23;;;;;;;;;;;;;;;27.29;20.72;98100.63;5086501;28;19920;-94
2023/11/16 04:12:49;;;;;;;;;;;;;;;27.58;20.42;98103.28;5092406;28;19924;-94
2023/11/16 04:15:15;;;;;;;;;;;;;;;27.44;20.92;98101.75;5090118;28;19927;-94
2023/11/16 04:17:44;;;;;;;;;;;;;;;27.26;20.79;98098.72;5085697;28;20275;-93
2023/11/16 04:20:11;;;;;;;;;;;;;;;27.21;20.86;98104.94;5087968;28;19920;-94
2023/11/16 04:22:39;;;;;;;;;;;;;;;26.98;21.13;98100.47;5083456;28;20268;-94
2023/11/16 04:25:11;;;;;;;;;;;;;;;26.71;21.39;98105.78;5083774;28;20053;-95
2023/11/16 04:27:37;;;;;;;;;;;;;;;26.80;21.27;98097.44;5094890;28;19916;-95
2023/11/16 04:30:06;;;;;;;;;;;;;;;26.93;21.40;98097.44;5089056;28;19939;-94
2023/11/16 04:32:32;;;;;;;;;;;;;;;26.74;21.30;98108.47;5092906;28;19927;-94
2023/11/16 04:34:59;;;;;;;;;;;;;;;26.69;21.69;98103.41;5098499;28;19929;-94
2023/11/16 04:37:26;;;;;;;;;;;;;;;27.25;20.87;98099.97;5091575;28;19920;-94
2023/11/16 04:39:52;;;;;;;;;;;;;;;27.32;20.91;98099.72;5094756;28;19983;-93
2023/11/16 04:42:18;;;;;;;;;;;;;;;27.32;20.71;98105.34;5097410;28;19920;-93
2023/11/16 04:44:44;;;;;;;;;;;;;;;27.43;20.75;98105.81;5085778;28;19990;-94
2023/11/16 04:47:11;;;;;;;;;;;;;;;27.44;20.76;98115.84;5089146;28;20007;-93
2023/11/16 04:49:37;;;;;;;;;;;;;;;27.41;20.74;98113.94;5084120;28;19920;-93
2023/11/16 04:52:03;;;;;;;;;;;;;;;27.07;21.39;98109.00;5073124;28;19924;-93
2023/11/16 04:54:30;;;;;;;;;;;;;;;27.21;21.07;98111.34;5078031;28;19975;-93
2023/11/16 04:56:56;;;;;;;;;;;;;;;27.25;20.92;98120.50;5088481;28;19927;-93
2023/11/16 04:59:22;;;;;;;;;;;;;;;27.29;20.84;98114.72;5091150;28;20281;-92
2023/11/16 05:01:48;;;;;;;;;;;;;;;27.36;20.94;98106.81;5085424;28;20338;-93
2023/11/16 05:04:15;;;;;;;;;;;;;;;27.10;21.50;98118.59;5093315;28;19920;-93
2023/11/16 05:06:41;;;;;;;;;;;;;;;27.14;21.47;98122.09;5086294;28;19920;-93
2023/11/16 05:09:07;;;;;;;;;;;;;;;27.25;21.29;98116.88;5084600;28;19927;-91
2023/11/16 05:11:33;;;;;;;;;;;;;;;27.20;21.30;98126.69;5089128;28;19923;-92
2023/11/16 05:13:59;;;;;;;;;;;;;;;27.30;21.14;98128.38;5091406;28;19935;-92
2023/11/16 05:16:26;;;;;;;;;;;;;;;27.22;21.48;98115.75;5090474;28;19991;-91
2023/11/16 05:18:53;;;;;;;;;;;;;;;26.91;21.58;98126.06;5081469;28;19927;-92
2023/11/16 05:21:19;;;;;;;;;;;;;;;26.65;22.12;98127.31;5083304;28;19967;-95
2023/11/16 05:23:45;;;;;;;;;;;;;;;26.64;22.28;98129.31;5081795;28;19977;-93
2023/11/16 05:26:11;;;;;;;;;;;;;;;26.45;22.46;98130.31;5081906;28;19928;-93
2023/11/16 05:28:37;;;;;;;;;;;;;;;26.83;22.34;98140.84;5087891;28;19920;-92
2023/11/16 05:31:04;;;;;;;;;;;;;;;26.92;22.18;98138.13;5085653;28;19962;-92
2023/11/16 05:33:31;;;;;;;;;;;;;;;26.57;22.58;98138.00;5087747;28;19974;-90
2023/11/16 05:35:59;;;;;;;;;;;;;;;26.44;22.62;98147.66;5081433;28;19920;-90
2023/11/16 05:38:25;;;;;;;;;;;;;;;26.31;22.86;98139.19;5073216;28;20380;-91
2023/11/16 05:40:52;;;;;;;;;;;;;;;26.60;22.85;98136.31;5081238;28;20391;-90
2023/11/16 05:43:18;;;;;;;;;;;;;;;26.60;22.82;98136.31;5081855;28;19935;-89
2023/11/16 05:45:44;;;;;;;;;;;;;;;26.85;22.72;98144.00;5086330;28;20337;-89
2023/11/16 05:48:10;;;;;;;;;;;;;;;27.34;22.21;98142.34;5092721;28;19920;-89
2023/11/16 05:50:37;;;;;;;;;;;;;;;27.78;21.70;98141.22;5090285;28;19926;-89
2023/11/16 05:53:03;;;;;;;;;;;;;;;28.05;21.32;98140.69;5083569;28;19924;-90
2023/11/16 05:55:34;;;;;;;;;;;;;;;28.20;21.08;98147.34;5088435;28;19927;-90
2023/11/16 05:58:00;;;;;;;;;;;;;;;28.26;20.92;98142.69;5078807;28;19916;-90
2023/11/16 06:00:26;;;;;;;;;;;;;;;27.99;21.27;98143.28;5093436;28;20054;-90
2023/11/16 06:02:53;;;;;;;;;;;;;;;27.62;21.92;98144.22;5097530;28;19951;-90
2023/11/16 06:05:19;;;;;;;;;;;;;;;27.64;21.93;98153.00;5103210;28;19927;-90
2023/11/16 06:07:45;;;;;;;;;;;;;;;27.74;21.95;98153.88;5092775;28;19916;-90
2023/11/16 06:10:11;;;;;;;;;;;;;;;27.91;21.74;98158.09;5077828;28;19920;-90
2023/11/16 06:12:38;;;;;;;;;;;;;;;27.82;22.02;98158.03;5095285;28;19913;-90
2023/11/16 06:15:07;;;;;;;;;;;;;;;27.92;21.77;98157.63;5090732;28;19920;-90
2023/11/16 06:17:34;;;;;;;;;;;;;;;28.11;21.70;98158.59;5079665;28;19927;-90
2023/11/16 06:20:00;;;;;;;;;;;;;;;27.99;21.84;98160.22;5091511;28;19923;-90
2023/11/16 06:22:26;;;;;;;;;;;;;;;28.11;21.41;98163.44;5092677;28;19924;-90
2023/11/16 06:24:53;;;;;;;;;;;;;;;27.91;21.95;98156.03;5095573;28;19920;-90
2023/11/16 06:27:19;;;;;;;;;;;;;;;27.85;22.08;98155.06;5096177;28;19975;-90
2023/11/16 06:29:46;;;;;;;;;;;;;;;28.02;22.00;98158.53;5090776;28;20283;-90
2023/11/16 06:32:12;;;;;;;;;;;;;;;28.14;21.80;98154.06;5096097;28;20298;-90
2023/11/16 06:34:38;;;;;;;;;;;;;;;28.23;21.90;98154.13;5098988;28;19924;-90
2023/11/16 06:37:04;;;;;;;;;;;;;;;28.47;21.19;98146.75;5090466;28;20003;-87
2023/11/16 06:39:30;;;;;;;;;;;;;;;28.55;21.25;98150.84;5083287;28;20007;-92
2023/11/16 06:41:57;;;;;;;;;;;;;;;28.67;21.15;98144.34;5104338;28;19966;-92
2023/11/16 06:44:23;;;;;;;;;;;;;;;28.63;21.40;98149.38;5093072;28;19939;-95
2023/11/16 06:46:49;;;;;;;;;;;;;;;28.69;21.36;98147.50;5083231;28;19924;-91
2023/11/16 06:49:16;;;;;;;;;;;;;;;28.73;21.15;98139.66;5092447;28;20254;-91
2023/11/16 06:51:42;;;;;;;;;;;;;;;28.79;21.27;98145.50;5090178;28;19924;-93
2023/11/16 06:54:11;;;;;;;;;;;;;;;28.74;21.14;98144.06;5092236;28;19971;-92
2023/11/16 06:56:37;;;;;;;;;;;;;;;28.63;21.33;98136.03;5096649;28;19916;-93
2023/11/16 06:59:04;;;;;;;;;;;;;;;28.39;21.88;98140.56;5092062;28;19920;-94
2023/11/16 07:01:32;;;;;;;;;;;;;;;28.39;21.79;98142.59;5094922;28;19955;-92
2023/11/16 07:03:58;;;;;;;;;;;;;;;28.55;21.67;98134.69;5090314;28;19962;-92
2023/11/16 07:06:24;;;;;;;;;;;;;;;28.75;21.54;98142.84;5093309;28;20330;-91
2023/11/16 07:08:50;;;;;;;;;;;;;;;28.73;21.71;98142.47;5094210;28;20378;-91
2023/11/16 07:11:16;;;;;;;;;;;;;;;28.36;22.04;98144.31;5096500;28;19923;-92
2023/11/16 07:13:42;;;;;;;;;;;;;;;28.05;22.07;98149.16;5096080;28;19912;-91
2023/11/16 07:16:08;;;;;;;;;;;;;;;27.89;22.36;98150.06;5095158;28;19924;-92
2023/11/16 07:18:35;;;;;;;;;;;;;;;28.25;22.39;98143.16;5087645;28;19916;-92
2023/11/16 07:21:04;;;;;;;;;;;;;;;28.56;21.70;98143.97;5075554;28;19928;-91
2023/11/16 07:23:30;;;;;;;;;;;;;;;28.59;21.54;98145.91;5080374;28;19990;-91
2023/11/16 07:26:00;;;;;;;;;;;;;;;28.63;21.64;98146.53;5084408;28;20049;-92
2023/11/16 07:28:26;;;;;;;;;;;;;;;28.82;21.52;98150.22;5096086;28;20007;-91
2023/11/16 07:30:52;;;;;;;;;;;;;;;28.79;21.49;98149.13;5096134;28;19913;-92
2023/11/16 07:33:18;;;;;;;;;;;;;;;28.95;21.22;98139.59;5095314;28;19920;-92
2023/11/16 07:35:47;;;;;;;;;;;;;;;29.10;21.00;98149.09;5093725;28;19920;-92
2023/11/16 07:38:13;;;;;;;;;;;;;;;29.11;21.19;98148.59;5085103;28;19916;-92
2023/11/16 07:40:40;;;;;;;;;;;;;;;29.14;21.52;98147.69;5078123;28;19939;-92
2023/11/16 07:43:06;;;;;;;;;;;;;;;28.96;21.54;98144.00;5094215;28;19973;-91
2023/11/16 07:45:32;;;;;;;;;;;;;;;28.83;21.33;98144.09;5094917;28;20331;-92
2023/11/16 07:48:01;;;;;;;;;;;;;;;28.46;22.56;98139.50;5095791;28;20296;-92
2023/11/16 07:50:31;;;;;;;;;;;;;;;28.81;22.27;98138.13;5096877;28;19927;-92
2023/11/16 07:52:59;;;;;;;;;;;;;;;28.89;21.52;98139.44;5103015;28;20372;-92
2023/11/16 07:55:26;;;;;;;;;;;;;;;28.72;21.91;98141.72;5082582;28;19916;-93
2023/11/16 07:57:53;;;;;;;;;;;;;;;28.78;21.89;98149.59;5089796;28;19921;-93
2023/11/16 08:00:26;;;;;;;;;;;;;;;28.91;22.06;98147.44;5095321;28;19923;-92
2023/11/16 08:05:41;;;;;;;;;;;;;;;29.15;21.28;98146.41;5095275;28;19927;-92
2023/11/16 08:08:11;;;;;;;;;;;;;;;29.28;21.67;98135.81;5094834;28;20011;-92
2023/11/16 08:10:38;;;;;;;;;;;;;;;29.29;21.34;98145.09;5094823;28;19916;-90
2023/11/16 08:13:05;;;;;;;;;;;;;;;29.43;21.42;98141.63;5095934;28;19973;-93
2023/11/16 08:15:35;;;;;;;;;;;;;;;28.51;22.40;98151.00;5115382;28;19916;-91
2023/11/16 08:18:01;;;;;;;;;;;;;;;28.52;22.32;98146.16;5088295;28;20027;-93
2023/11/16 08:20:29;;;;;;;;;;;;;;;28.42;21.93;98150.16;5074703;28;19917;-91
2023/11/16 08:22:56;;;;;;;;;;;;;;;28.33;22.02;98147.28;5089618;28;20014;-92
2023/11/16 08:25:23;;;;;;;;;;;;;;;28.43;22.47;98143.25;5094945;28;19920;-91
2023/11/16 08:27:51;;;;;;;;;;;;;;;28.33;22.13;98147.28;5095409;28;19920;-91
2023/11/16 08:30:17;;;;;;;;;;;;;;;28.07;22.66;98143.81;5094068;28;19916;-92
2023/11/16 08:32:44;;;;;;;;;;;;;;;28.41;22.38;98140.09;5076758;28;19916;-92
2023/11/16 08:35:11;;;;;;;;;;;;;;;28.76;22.31;98138.75;5094748;28;19969;-92
2023/11/16 08:37:37;;;;;;;;;;;;;;;28.83;21.76;98138.44;5094518;28;20392;-92
2023/11/16 08:40:03;;;;;;;;;;;;;;;28.75;21.42;98137.19;5076520;28;19916;-93
2023/11/16 08:42:38;;;;;;;;;;;;;;;28.96;22.06;98130.66;5081628;28;20398;-93
2023/11/16 08:45:05;;;;;;;;;;;;;;;29.31;21.48;98134.84;5083584;28;19920;-92
2023/11/16 08:47:31;;;;;;;;;;;;;;;29.43;20.93;98138.78;5085498;28;19923;-92
2023/11/16 08:49:57;;;;;;;;;;;;;;;29.61;21.30;98144.50;5094384;28;20268;-93
2023/11/16 08:52:24;;;;;;;;;;;;;;;29.76;21.48;98147.50;5094530;28;20322;-92
2023/11/16 08:54:50;;;;;;;;;;;;;;;29.77;21.40;98141.38;5094206;28;20289;-93
2023/11/16 08:57:19;;;;;;;;;;;;;;;29.71;20.45;98143.22;5094192;28;19926;-92
2023/11/16 09:00:02;;;;;;;;;;;;;;;29.79;20.87;98146.56;5094529;28;20371;-94
2023/11/16 09:02:28;;;;;;;;;;;;;;;29.99;21.13;98142.00;5090436;28;19916;-92
2023/11/16 09:04:55;;;;;;;;;;;;;;;30.07;20.87;98150.97;5073897;28;19920;-93
2023/11/16 09:07:21;;;;;;;;;;;;;;;30.08;20.04;98144.81;5074431;28;19920;-93
2023/11/16 09:09:47;;;;;;;;;;;;;;;30.08;20.41;98141.22;5074530;28;20276;-93
2023/11/16 09:12:16;;;;;;;;;;;;;;;29.85;20.17;98142.63;5074295;28;20433;-93
2023/11/16 09:14:42;;;;;;;;;;;;;;;29.51;20.64;98137.25;5104118;28;19955;-93
2023/11/16 09:17:18;;;;;;;;;;;;;;;29.44;21.00;98137.56;5079884;28;19920;-92
2023/11/16 09:19:44;;;;;;;;;;;;;;;29.63;21.47;98127.81;5074400;28;19924;-92
2023/11/16 09:22:10;;;;;;;;;;;;;;;29.82;20.90;98137.13;5078786;28;19920;-92
2023/11/16 09:24:44;;;;;;;;;;;;;;;29.16;21.87;98131.03;5094474;28;19920;-92
2023/11/16 09:27:10;;;;;;;;;;;;;;;29.08;22.50;98132.56;5094102;28;19916;-92
2023/11/16 09:29:38;;;;;;;;;;;;;;;29.50;21.70;98135.66;5094169;28;19916;-93
2023/11/16 09:32:05;;;;;;;;;;;;;;;29.48;21.62;98132.53;5087016;28;19927;-93
2023/11/16 09:34:31;;;;;;;;;;;;;;;29.67;21.31;98128.44;5087180;28;19923;-93
2023/11/16 09:37:00;;;;;;;;;;;;;;;29.41;22.43;98127.97;5093363;28;19916;-93
2023/11/16 09:39:26;;;;;;;;;;;;;;;29.55;21.93;98126.56;5094415;28;20350;-93
2023/11/16 09:41:54;;;;;;;;;;;;;;;29.74;21.88;98122.47;5093966;28;19985;-93
2023/11/16 09:44:27;;;;;;;;;;;;;;;30.07;21.04;98112.09;5094082;28;19916;-93
2023/11/16 09:47:02;;;;;;;;;;;;;;;30.15;20.99;98121.06;5094050;28;20286;-93
2023/11/16 09:49:32;;;;;;;;;;;;;;;30.03;21.59;98107.88;5093852;28;19916;-93
2023/11/16 09:51:59;;;;;;;;;;;;;;;30.14;21.38;98099.66;5094020;28;19997;-93
2023/11/16 09:54:28;;;;;;;;;;;;;;;30.38;21.61;98106.25;5079919;28;20292;-93
2023/11/16 09:56:55;;;;;;;;;;;;;;;30.41;21.36;98104.50;5073978;28;19939;-93
2023/11/16 09:59:42;;;;;;;;;;;;;;;30.48;21.60;98104.94;5087338;28;19919;-93
2023/11/16 10:02:10;;;;;;;;;;;;;;;30.56;21.25;98103.34;5100832;28;19977;-92
2023/11/16 10:04:43;;;;;;;;;;;;;;;30.70;21.28;98091.31;5099784;28;19956;-91
2023/11/16 10:07:15;;;;;;;;;;;;;;;30.78;21.64;98094.59;5105824;28;20061;-92
2023/11/16 10:09:44;;;;;;;;;;;;;;;30.80;20.84;98083.56;5099186;28;19916;-93
2023/11/16 10:12:11;;;;;;;;;;;;;;;30.69;21.24;98086.16;5079526;28;20291;-93
2023/11/16 10:14:41;;;;;;;;;;;;;;;30.63;21.29;98083.16;5072098;28;20279;-93
2023/11/16 10:17:07;;;;;;;;;;;;;;;30.54;21.57;98088.09;5077283;28;19916;-92
2023/11/16 10:19:33;;;;;;;;;;;;;;;30.49;21.29;98080.22;5075649;28;20335;-92
2023/11/16 10:21:59;;;;;;;;;;;;;;;30.56;21.26;98080.69;5076752;28;20300;-92
2023/11/16 10:24:25;;;;;;;;;;;;;;;30.53;21.46;98083.66;5090460;28;19904;-92
2023/11/16 10:26:52;;;;;;;;;;;;;;;30.37;21.19;98078.38;5077921;28;19916;-92
2023/11/16 10:29:18;;;;;;;;;;;;;;;30.39;20.85;98067.34;5077327;28;19925;-91
2023/11/16 10:31:46;;;;;;;;;;;;;;;29.99;21.97;98084.59;5077019;28;19916;-92
2023/11/16 10:34:16;;;;;;;;;;;;;;;29.79;21.98;98073.75;5087733;28;19920;-91
2023/11/16 10:36:44;;;;;;;;;;;;;;;30.05;22.09;98075.00;5083169;28;19920;-91
2023/11/16 10:39:11;;;;;;;;;;;;;;;30.24;21.17;98075.72;5095975;28;19916;-92
2023/11/16 10:41:38;;;;;;;;;;;;;;;30.18;21.29;98074.03;5096751;28;19916;-91
2023/11/16 10:44:06;;;;;;;;;;;;;;;30.16;21.71;98063.16;5096267;28;19916;-92
2023/11/16 10:46:33;;;;;;;;;;;;;;;30.32;21.87;98059.94;5096658;28;20423;-91
2023/11/16 10:48:59;;;;;;;;;;;;;;;30.43;21.31;98046.09;5097142;28;19927;-92
2023/11/16 10:51:27;;;;;;;;;;;;;;;30.49;21.35;98046.22;5096704;28;19962;-93
2023/11/16 10:53:57;;;;;;;;;;;;;;;30.69;21.35;98038.72;5096897;28;19997;-92
2023/11/16 10:56:24;;;;;;;;;;;;;;;30.47;21.78;98028.91;5097143;28;19912;-92
2023/11/16 10:58:51;;;;;;;;;;;;;;;30.47;21.89;98017.59;5096597;28;19923;-93
2023/11/16 11:01:18;;;;;;;;;;;;;;;30.62;21.68;98024.91;5093550;28;19922;-92
2023/11/16 11:03:45;;;;;;;;;;;;;;;30.34;21.64;98022.69;5083064;28;19924;-92
2023/11/16 11:06:18;;;;;;;;;;;;;;;30.26;21.97;98018.59;5096356;28;19917;-92
2023/11/16 11:08:44;;;;;;;;;;;;;;;29.93;21.36;98021.38;5096657;28;20326;-92
2023/11/16 11:11:11;;;;;;;;;;;;;;;30.07;22.34;98023.53;5096299;28;19916;-93
2023/11/16 11:13:43;;;;;;;;;;;;;;;30.37;21.75;98019.66;5102130;28;20327;-92
2023/11/16 11:16:12;;;;;;;;;;;;;;;30.45;21.63;98017.28;5116687;28;19920;-92
2023/11/16 11:18:46;;;;;;;;;;;;;;;30.73;21.00;98019.50;5104856;28;19969;-93
2023/11/16 11:21:15;;;;;;;;;;;;;;;30.59;21.59;98022.25;5079680;28;20303;-94
2023/11/16 11:23:41;;;;;;;;;;;;;;;30.56;21.37;98018.34;5096189;28;19927;-91
2023/11/16 11:26:08;;;;;;;;;;;;;;;30.77;21.90;98014.44;5095617;28;19920;-91
2023/11/16 11:28:35;;;;;;;;;;;;;;;30.86;20.96;98005.06;5095669;28;19917;-92
2023/11/16 11:31:05;;;;;;;;;;;;;;;30.89;20.34;98006.19;5095903;28;19962;-91
2023/11/16 11:33:37;;;;;;;;;;;;;;;30.88;21.22;98010.28;5096079;28;19916;-91
2023/11/16 11:36:09;;;;;;;;;;;;;;;30.94;21.37;98006.34;5086844;28;19999;-92
2023/11/16 11:38:38;;;;;;;;;;;;;;;31.15;20.92;98002.41;5094740;28;19955;-90
2023/11/16 11:41:08;;;;;;;;;;;;;;;31.33;20.90;98001.44;5095892;28;19916;-90
2023/11/16 11:43:38;;;;;;;;;;;;;;;31.42;20.55;97999.34;5095517;28;19917;-90
2023/11/16 11:46:11;;;;;;;;;;;;;;;31.52;20.46;97997.22;5095708;28;19970;-91
2023/11/16 11:48:40;;;;;;;;;;;;;;;31.40;20.63;97992.56;5095824;28;19945;-91
2023/11/16 11:51:08;;;;;;;;;;;;;;;31.32;21.35;97989.31;5095711;28;19927;-91
2023/11/16 11:53:34;;;;;;;;;;;;;;;31.39;20.78;97985.34;5082114;28;19921;-90
2023/11/16 11:56:02;;;;;;;;;;;;;;;31.34;20.62;97983.94;5075188;28;19917;-90
2023/11/16 11:58:28;;;;;;;;;;;;;;;31.07;21.24;97978.50;5075568;28;19917;-90
2023/11/16 12:00:55;;;;;;;;;;;;;;;31.06;20.78;97974.09;5094153;28;19959;-91
2023/11/16 12:03:21;;;;;;;;;;;;;;;31.17;21.05;97977.16;5095662;28;19966;-91
2023/11/16 12:06:00;;;;;;;;;;;;;;;31.39;21.16;97974.75;5095363;28;19916;-91
2023/11/16 12:08:39;;;;;;;;;;;;;;;31.20;20.95;97970.50;5095545;28;19920;-90
2023/11/16 12:11:05;;;;;;;;;;;;;;;31.32;20.37;97965.84;5092825;28;19959;-91
2023/11/16 12:13:33;;;;;;;;;;;;;;;31.42;20.69;97967.31;5085507;28;19922;-91
2023/11/16 12:15:59;;;;;;;;;;;;;;;31.26;20.65;97960.06;5115579;28;19966;-92
2023/11/16 12:18:25;;;;;;;;;;;;;;;31.39;21.13;97954.88;5094847;28;20011;-91
2023/11/16 12:20:53;;;;;;;;;;;;;;;31.53;20.48;97956.19;5094457;28;19920;-90
2023/11/16 12:23:20;;;;;;;;;;;;;;;31.59;20.71;97945.75;5095396;28;19924;-91
2023/11/16 12:25:46;;;;;;;;;;;;;;;31.50;20.35;97937.31;5094481;28;20049;-92
2023/11/16 12:28:12;;;;;;;;;;;;;;;31.35;20.80;97931.59;5089307;28;20368;-91
2023/11/16 12:30:38;;;;;;;;;;;;;;;31.46;20.62;97931.03;5094985;28;19916;-91
2023/11/16 12:33:06;;;;;;;;;;;;;;;31.61;20.71;97931.06;5094905;28;20288;-91
2023/11/16 12:35:36;;;;;;;;;;;;;;;31.66;20.27;97927.53;5095181;28;20314;-91
2023/11/16 12:38:04;;;;;;;;;;;;;;;31.52;20.31;97919.78;5094498;28;19912;-91
2023/11/16 12:40:30;;;;;;;;;;;;;;;31.23;21.40;97915.63;5094728;28;19916;-91
2023/11/16 12:42:56;;;;;;;;;;;;;;;31.39;21.11;97922.91;5080567;28;19924;-91
2023/11/16 12:45:22;;;;;;;;;;;;;;;31.41;21.38;97920.38;5074902;28;19923;-91
2023/11/16 12:47:48;;;;;;;;;;;;;;;31.44;21.10;97912.97;5074900;28;20372;-91
2023/11/16 12:50:16;;;;;;;;;;;;;;;31.35;21.45;97920.25;5074268;28;19927;-91